Weather observations for the past three days for
Wayne, Wayne Municipal Airport
Imperial (Metric)
Date Time (cdt) Wind (mph) Vis. (mi.) Weather Sky Cond. Temperature (ºF) Relative Humidity Wind Chill (°F) Heat Index (°F) Pressure Precipitation (in)
Air Dwpt 6 hour altimeter (in) sea level (mb) 1 hr 3 hr 6 hr
Max. Min.
03 00:55 S 8 10.00 Fair CLR 74.5 68.5 85.1 73.8 82% 29.81 0.0
03 00:35 S 8 10.00 Fair CLR 75.2 69.1 81% 76 29.81 0.0
03 00:15 S 8 10.00 Fair CLR 75.4 70 83% 76 29.81 0.0
02 23:55 S 8 10.00 Fair CLR 75.7 71.1 85% 76 29.81 0.0
02 23:35 S 7 10.00 Fair CLR 75.6 71.6 88% 75 29.81 0.0
02 23:15 S 6 10.00 Fair CLR 75.7 71.8 88% 76 29.81 0.0
02 22:55 S 5 10.00 Fair CLR 75.9 72.1 88% 76 29.81 0.0
02 22:35 S 5 10.00 Fair CLR 76.8 72 85% 78 29.81 0.0
02 22:15 Calm 10.00 Fair CLR 74.3 72.3 94% 29.81 0.0
02 21:55 Calm 10.00 Fair CLR 75 72.9 93% 74 29.82 0.0
02 21:35 Calm 10.00 Fair CLR 76.5 73.8 91% 77 29.81 0.0
02 21:15 Calm 10.00 Fair CLR 77.9 74.1 88% 80 29.81 0.0
02 20:55 Calm 10.00 Fair CLR 77.9 74.3 89% 80 29.81 0.0
02 20:35 S 3 10.00 Fair CLR 79.7 74.8 85% 84 29.8 0.0
02 20:15 S 5 10.00 Fair CLR 80.8 75.6 84% 87 29.8 0.0
02 19:55 S 5 10.00 Partly Cloudy SCT120 82.2 77 84% 91 29.8 0.0
02 19:35 S 3 10.00 Partly Cloudy SCT120 83.8 77.2 80% 94 29.8 0.0
02 19:15 S 3 10.00 Fair CLR 85.1 77.2 77% 96 29.81 0.0
02 18:55 S 6 10.00 Fair CLR 85.1 76.5 90 84.4 75% 95 29.81 0.0
02 18:35 S 7 10.00 Fair CLR 85.8 75.7 72% 95 29.81 0.0
02 18:15 S 9 10.00 Fair CLR 86.9 76.3 71% 98 29.81 0.0
02 17:55 S 12 10.00 Fair CLR 87.3 74.8 67% 97 29.81 0.0
02 17:35 S 9 10.00 Fair CLR 88 75.9 68% 99 29.81 0.0
02 17:15 S 10 10.00 Fair CLR 88.3 75.9 67% 99 29.81 0.0
02 16:55 S 10 10.00 Fair CLR 89.6 76.5 65% 102 29.81 0.0
02 16:35 S 7 10.00 Fair CLR 87.8 75.4 67% 98 29.82 0.0
02 16:15 S 10 10.00 Fair CLR 88.9 75.2 64% 99 29.83 0.0
02 15:55 S 10 10.00 Fair CLR 89.1 76.1 66% 101 29.83 0.0
02 15:35 S 8 10.00 Fair CLR 88.9 75.7 65% 100 29.84 0.0
02 15:15 S 12 10.00 Fair CLR 88.5 75 64% 99 29.84 0.0
02 14:55 S 9 10.00 Fair CLR 87.8 74.3 64% 97 29.84 0.0
02 14:35 S 9 10.00 Fair CLR 87.1 75.2 68% 97 29.84 0.0
02 14:15 S 8 10.00 Fair CLR 86.9 74.8 67% 96 29.84 0.0
02 13:55 S 9 10.00 Fair CLR 86.4 74.5 68% 95 29.85 0.0
02 13:35 S 8 10.00 Fair CLR 85.1 73.2 68% 92 29.86 0.0
02 13:15 S 8 10.00 Fair CLR 84.6 72.9 68% 91 29.86 0.0
02 12:55 S 6 10.00 Fair CLR 84.2 72.3 84.2 69.3 68% 90 29.86 0.0
02 12:35 S 8 10.00 Fair CLR 82.8 71.1 68% 87 29.88 0.0
02 12:15 S 7 10.00 Fair CLR 82.4 71.8 70% 87 29.88 0.0
02 11:55 S 6 10.00 Fair CLR 82.8 70.7 67% 87 29.88 0.0
02 11:35 SE 7 10.00 Fair CLR 81.5 71.2 71% 86 29.88 0.0
02 11:15 S 7 10.00 Fair CLR 80.2 70.5 72% 84 29.88 0.0
02 10:55 S 8 10.00 Fair CLR 79.5 69.6 72% 82 29.88 0.0
02 10:35 S 5 10.00 Fair CLR 78.8 68.9 72% 81 29.88 0.0
02 10:15 S 8 10.00 Fair CLR 77.5 69.1 75% 79 29.88 0.0
02 09:55 S 8 10.00 Fair CLR 76.8 69.6 79% 78 29.88 0.0
02 09:35 SE 6 10.00 Fair CLR 75.2 69.4 82% 76 29.88 0.0
02 09:15 SE 3 10.00 Fair CLR 74.1 69.3 85% 29.88 0.0
02 08:55 SE 3 10.00 Fair CLR 73.2 68.7 86% 29.88 0.0
02 08:35 Calm 10.00 Partly Cloudy SCT120 70.7 67.6 90% 29.88 0.0
02 08:15 SE 3 10.00 Partly Cloudy SCT120 70.2 67.1 90% 29.88 0.0
02 07:55 SE 8 10.00 Fair CLR 70 66.6 89% 29.88 0.0
02 07:35 SE 5 10.00 Partly Cloudy SCT120 69.6 66.6 90% 29.88 0.0
02 07:15 S 8 10.00 Partly Cloudy SCT120 69.8 66.6 90% 29.88 0.0
02 06:55 SE 12 10.00 Fair CLR 69.4 66.6 73.2 68.4 91% 29.86 0.0 0.06
02 06:35 S 10 10.00 Fair CLR 68.5 66.4 93% 29.86 0.0
02 06:15 S 8 10.00 Fair CLR 68.7 66.4 92% 29.88 0.0
02 05:55 S 9 10.00 Fair CLR 68.5 66.4 93% 29.88 0.0
02 05:35 SE 10 10.00 Partly Cloudy SCT110 68.9 66.6 92% 29.88 0.0
02 05:15 SE 13 10.00 Partly Cloudy SCT110 69.4 66.7 91% 29.88 0.0
02 04:55 S 6 10.00 Fair CLR 70.5 67.1 89% 29.89 0.0
02 04:35 SE 3 10.00 Partly Cloudy SCT120 70.3 68 92% 29.9 0.0
02 04:15 W 3 10.00 Partly Cloudy SCT120 70.5 68 92% 29.9 0.0
02 03:55 S 8 10.00 Partly Cloudy SCT120 71.2 68.2 90% 29.88 0.0 0.06
02 03:35 S 10 10.00 Thunderstorm in Vicinity SCT095 BKN120 72.3 68.2 87% 29.88 0.0
02 03:15 SE 5 10.00 Overcast SCT045 SCT060 OVC110 71.6 68.4 90% 29.88 0.0
02 02:55 S 5 10.00 Thunderstorm Rain in Vicinity SCT050 SCT070 OVC110 70.3 68.5 94% 29.88 0.0 0.01
02 02:35 N 3 10.00 Thunderstorm in Vicinity OVC110 70.9 67.8 90% 29.91 0.0
02 02:15 SE 8 G 16 10.00 Thunderstorm OVC110 72.3 67.3 84% 29.88 0.0
02 01:55 SE 10 10.00 Thunderstorm Light Rain in Vicinity BKN110 70.3 67.1 90% 29.88 0.0 0.05
02 01:35 E 10 10.00 Thunderstorm Light Rain SCT045 SCT070 BKN100 70.9 67.3 88% 29.92 0.0 0.05
02 01:15 W 24 G 32 10.00 Thunderstorm Light Rain and Breezy SCT020 SCT038 BKN110 71.2 66.2 84% 30 0.0
02 00:55 NE 10 10.00 Mostly Cloudy SCT037 BKN110 71.6 65.3 82.4 69.4 81% 29.93 0.0
02 00:35 N 7 10.00 Mostly Cloudy SCT037 BKN100 71.8 65.7 81% 29.93 0.0
02 00:15 N 12 G 20 10.00 Thunderstorm in Vicinity BKN100 72 66.4 83% 29.91 0.0
01 23:55 Calm 10.00 Fair CLR 71.6 66.2 83% 29.86 0.0
01 23:35 S 3 10.00 Fair CLR 70.2 66.4 88% 29.88 0.0
01 23:15 S 3 10.00 Fair CLR 70 66.6 89% 29.89 0.0
01 22:55 Calm 10.00 Fair CLR 69.4 66.2 90% 29.9 0.0
01 22:35 Calm 10.00 Fair CLR 70.2 65.8 86% 29.91 0.0
01 22:15 Calm 10.00 Fair CLR 72.5 64.4 76% 29.9 0.0
01 21:55 N 3 10.00 Fair CLR 72.9 64.4 75% 29.91 0.0
01 21:35 N 12 G 18 10.00 Partly Cloudy SCT042 SCT120 74.8 65.1 72% 29.92 0.0
01 21:15 NW 12 G 17 10.00 Partly Cloudy SCT120 75.6 74.3 96% 74 29.91 0.0
01 20:55 Calm 10.00 Partly Cloudy SCT120 77 74.7 93% 78 29.89 0.0
01 20:35 Calm 10.00 Mostly Cloudy BKN120 77 74.8 93% 78 29.89 0.0
01 20:15 N 5 10.00 Partly Cloudy SCT120 77 74.7 93% 78 29.86 0.0
01 19:55 Calm 10.00 Partly Cloudy SCT120 78.4 75.7 91% 82 29.86 0.0
01 19:35 Calm 10.00 Partly Cloudy SCT120 81.1 75.7 84% 88 29.86 0.0
01 19:15 Calm 10.00 Partly Cloudy SCT120 80.6 76.3 87% 87 29.88 0.0
01 18:55 Calm 10.00 Fair CLR 82.4 75 88.7 82.4 78% 89 29.86 0.0
01 18:35 SE 6 10.00 Partly Cloudy SCT036 83.1 74.8 76% 90 29.86 0.0
01 18:15 SE 8 10.00 Mostly Cloudy BKN036 84.6 74.8 73% 93 29.86 0.0
01 17:55 SE 3 10.00 Partly Cloudy SCT034 86.5 75.9 71% 97 29.87 0.0
01 17:35 S 6 10.00 Fair CLR 86.4 75.2 69% 96 29.88 0.0
01 17:15 SE 8 10.00 Fair CLR 86.7 74.8 68% 96 29.88 0.0
01 16:55 S 9 10.00 Fair CLR 87.1 75.6 69% 97 29.88 0.0
01 16:35 SE 9 10.00 Partly Cloudy SCT033 SCT039 87.4 75.7 68% 98 29.88 0.0
01 16:15 E 8 10.00 Mostly Cloudy BKN033 BKN039 87.6 77.4 72% 100 29.89 0.0
01 15:55 SE 5 10.00 Partly Cloudy SCT033 88 76.6 69% 100 29.9 0.0
01 15:35 SE 9 10.00 Partly Cloudy SCT031 88.3 76.5 68% 100 29.91 0.0
01 15:15 E 7 10.00 Fair CLR 87.3 76.6 71% 99 29.91 0.0
01 14:55 E 8 10.00 Fair CLR 87.8 76.8 70% 100 29.92 0.0
01 14:35 E 7 10.00 Fair CLR 87.3 75.6 68% 97 29.92 0.0
01 14:15 E 5 10.00 Fair CLR 86.4 77.5 75% 98 29.92 0.0
01 13:55 E 8 10.00 Fair CLR 86.4 77 74% 98 29.92 0.0
01 13:35 E 8 10.00 Fair CLR 85.1 75.7 74% 94 29.93 0.0
01 13:15 E 8 10.00 Fair CLR 86.2 75.7 71% 96 29.93 0.0
01 12:55 E 10 10.00 Fair CLR 86.2 75.9 86.2 65.5 72% 96 29.93 0.0
01 12:35 E 10 10.00 Fair CLR 85.1 76.5 75% 95 29.94 0.0
01 12:15 NE 10 10.00 Fair CLR 84.2 76.3 77% 93 29.94 0.0
01 11:55 NE 9 10.00 Fair CLR 83.5 77 81% 93 29.94 0.0
01 11:35 E 10 10.00 Fair CLR 82 76.1 82% 89 29.95 0.0
01 11:15 NE 8 10.00 Partly Cloudy SCT110 80.6 75.6 85% 86 29.96 0.0
01 10:55 NE 7 10.00 Mostly Cloudy BKN110 80.8 75.7 85% 87 29.96 0.0
01 10:35 NE 6 10.00 Mostly Cloudy BKN110 80.1 75.6 86% 85 29.96 0.0
01 10:15 NE 5 10.00 Partly Cloudy SCT110 79.3 75.7 89% 84 29.97 0.0
01 09:55 Calm 10.00 Partly Cloudy SCT110 76.8 74.5 93% 78 29.97 0.0
01 09:35 Calm 7.00 Mostly Cloudy BKN110 74.3 73 96% 29.97 0.0
01 09:15 Calm 5.00 Fog/Mist BKN110 73.4 72.5 97% 29.97 0.0
01 08:55 N 3 5.00 Fog/Mist BKN110 72.3 71.6 98% 29.96 0.0
01 08:35 Calm 4.00 Fog/Mist CLR 70.5 70.2 99% 29.96 0.0
01 08:15 Calm 4.00 Fog/Mist CLR 68.9 68.5 99% 29.96 0.0
01 07:55 Calm 4.00 Fog/Mist CLR 68.2 68 99% 29.96 0.0
01 07:35 Calm 4.00 Fog/Mist CLR 66.6 66.2 99% 29.96 0.0
01 07:15 Calm 3.00 Fog/Mist BKN002 66 65.7 99% 29.95 0.0
01 06:55 Calm 1.00 Fog/Mist OVC002 65.5 65.3 70.3 64.6 99% 29.95 0.0
01 06:35 Calm 0.25 Fog OVC002 64.8 64.6 99% 29.95 0.0
01 06:15 Calm 0.25 Fog OVC002 64.9 64.6 99% 29.95 0.0
01 05:55 Calm 0.75 Fog/Mist OVC002 64.8 64.4 99% 29.94 0.0
01 05:35 Calm 0.25 Fog OVC002 65.5 65.1 99% 29.95 0.0
01 05:15 Calm 2.50 Fog/Mist BKN004 65.7 65.1 98% 29.95 0.0
01 04:55 Calm 7.00 Mostly Cloudy BKN006 66.9 66.2 98% 29.95 0.0
01 04:35 Calm 7.00 Fair CLR 66.6 66 98% 29.96 0.0
01 04:15 Calm 5.00 Fog/Mist SCT004 66.6 66 98% 29.95 0.0
01 03:55 Calm 7.00 Fair CLR 67.6 67.1 98% 29.95 0.0
01 03:35 Calm 7.00 Fair CLR 67.3 66.7 98% 29.95 0.0
01 03:15 NW 3 4.00 Fog/Mist CLR 67.5 67.1 99% 29.95 0.0
01 02:55 Calm 5.00 Fog/Mist CLR 67.8 67.3 98% 29.95 0.0
01 02:35 Calm 7.00 Fair CLR 68.2 67.6 98% 29.95 0.0
01 02:15 Calm 7.00 Fair CLR 68.7 68 98% 29.96 0.0
01 01:55 Calm 7.00 Fair CLR 69.6 68.9 98% 29.96 0.0
01 01:35 NW 3 7.00 Fair CLR 69.1 68.5 98% 29.96 0.0
01 01:15 SE 6 7.00 Fair CLR 68.9 68.4 98% 29.95 0.0
01 00:55 Calm 10.00 Partly Cloudy SCT100 68 67.3 84.4 67.5 98% 29.98 0.0
01 00:35 Calm 10.00 Fair CLR 68.2 67.3 97% 29.98 0.0
01 00:15 Calm 10.00 Fair CLR 68.4 67.6 98% 29.98 0.0
31 23:55 Calm 10.00 Fair CLR 67.6 66.6 96% 29.97 0.0
31 23:35 Calm 7.00 Fair CLR 67.8 67.3 98% 29.98 0.0
31 23:15 Calm 10.00 Fair CLR 68 67.3 98% 29.97 0.0
31 22:55 Calm 10.00 Fair CLR 69.8 68.9 97% 29.97 0.0
31 22:35 Calm 10.00 Fair CLR 69.6 68.4 96% 29.96 0.0
31 22:15 Calm 7.00 Fair CLR 70.3 69.8 98% 29.96 0.0
31 21:55 Calm 10.00 Fair CLR 69.6 68.7 97% 29.95 0.0
31 21:35 Calm 10.00 Fair CLR 70.3 69.3 96% 29.94 0.0
31 21:15 Calm 10.00 Fair CLR 70.7 68.7 93% 29.94 0.0
31 20:55 Calm 10.00 Fair CLR 73.9 71.6 92% 29.93 0.0
31 20:35 Calm 10.00 Fair CLR 75.4 72.7 91% 75 29.93 0.0
31 20:15 Calm 10.00 Fair CLR 76.3 73.4 91% 77 29.93 0.0
31 19:55 SE 3 10.00 Fair CLR 79.7 74.1 83% 84 29.93 0.0
31 19:35 SE 3 10.00 Fair CLR 81.9 74.5 78% 88 29.93 0.0
31 19:15 Calm 10.00 Fair CLR 83.8 73.2 70% 90 29.93 0.0
31 18:35 Calm 10.00 Fair CLR 84.2 73.4 70% 91 29.93 0.0
31 18:15 S 3 10.00 Fair CLR 84.2 73.6 71% 91 29.93 0.0
31 17:55 Calm 10.00 Fair CLR 84.7 73.6 69% 92 29.94 0.0
31 17:35 S 5 10.00 Fair CLR 85.1 73.8 69% 93 29.94 0.0
31 17:15 Calm 10.00 Fair CLR 85.1 71.2 63% 91 29.93 0.0
31 16:55 Calm 10.00 Fair CLR 84.7 71.6 65% 90 29.94 0.0
31 16:35 Calm 10.00 Fair CLR 85.1 69.8 60% 90 29.94 0.0
31 16:15 Calm 10.00 Fair CLR 85.3 71.6 64% 91 29.95 0.0
31 15:55 Calm 10.00 Fair CLR 84.9 70 61% 89 29.95 0.0
31 15:35 Calm 10.00 Fair CLR 84.2 69.6 62% 88 29.95 0.0
31 15:15 Calm 10.00 Fair CLR 83.5 70 64% 88 29.95 0.0
31 14:55 Calm 10.00 Fair CLR 83.5 70 64% 88 29.95 0.0
31 14:35 Calm 10.00 Fair CLR 83.5 71.1 66% 88 29.96 0.0
31 14:15 Calm 10.00 Fair CLR 83.1 70 65% 87 29.96 0.0
31 13:55 Calm 10.00 Fair CLR 82 69.1 65% 85 29.96 0.0
31 13:35 Calm 10.00 Fair CLR 81.5 69.8 68% 85 29.96 0.0
31 13:15 N 7 10.00 Fair CLR 81.1 69.8 69% 85 29.96 0.0
31 12:55 N 8 10.00 Fair CLR 80.1 69.8 80.1 69.3 71% 83 29.95 0.0
31 12:35 NW 8 10.00 Fair CLR 79 69.3 72% 82 29.95 0.0
31 12:15 NW 10 10.00 Fair CLR 77.9 68.9 74% 80 29.94 0.0
31 11:55 NW 9 10.00 Fair CLR 77.2 69.1 76% 79 29.94 0.0
31 11:35 N 12 10.00 Fair CLR 75.7 68.2 77% 77 29.94 0.0
31 11:15 N 9 10.00 Fair CLR 74.8 67.8 79% 29.95 0.0
31 10:55 NW 6 10.00 Mostly Cloudy BKN120 71.2 66.6 85% 29.96 0.0
31 10:35 NW 8 10.00 Mostly Cloudy BKN120 69.8 65.1 85% 29.96 0.0
31 10:15 NW 7 10.00 Partly Cloudy SCT120 70.2 64.8 83% 29.96 0.0
31 09:55 NW 9 10.00 Fair CLR 70.3 65.5 85% 29.95 0.0
31 09:35 NW 6 10.00 Light Rain SCT120 69.8 65.5 86% 29.96 0.0
31 09:15 W 6 10.00 Mostly Cloudy BKN120 69.6 65.5 87% 29.97 0.0
31 08:55 NW 7 10.00 Partly Cloudy SCT120 69.8 66.2 88% 29.95 0.0
31 08:35 NW 8 10.00 Fair CLR 70 66.7 90% 29.94 0.0
31 08:15 NW 7 10.00 Fair CLR 69.8 67.3 92% 29.93 0.0
31 07:55 NW 5 10.00 Fair CLR 69.8 67.5 92% 29.92 0.0
31 07:35 NW 6 10.00 Fair CLR 69.8 67.3 92% 29.91 0.0
31 07:15 NW 5 10.00 Fair CLR 69.8 66.7 90% 29.89 0.0
31 06:55 NW 5 10.00 Fair CLR 69.3 66.4 71.1 67.5 91% 29.88 0.0
31 06:35 W 3 10.00 Fair CLR 69.4 66.2 90% 29.87 0.0
31 06:15 W 7 10.00 Fair CLR 70 66.2 88% 29.88 0.0
31 05:55 Calm 10.00 Fair CLR 70.9 66.2 85% 29.86 0.0
31 05:35 W 5 10.00 Fair CLR 70.7 66.4 86% 29.86 0.0
31 05:15 NW 5 10.00 Fair CLR 70.3 66.9 89% 29.86 0.0
31 04:55 Calm 10.00 Fair CLR 70.7 67.8 91% 29.86 0.0
31 04:35 Calm 10.00 Fair CLR 69.3 68 96% 29.84 0.0
31 04:15 Calm 10.00 Fair CLR 69.1 67.8 96% 29.82 0.0
31 03:55 S 3 7.00 Fair CLR 68.9 68 97% 29.82 0.0
31 03:35 S 3 7.00 Fair CLR 69.3 68.5 98% 29.82 0.0
31 03:15 W 6 7.00 Fair CLR 68.9 68 97% 29.83 0.0
31 02:55 Calm 7.00 Fair CLR 68 67.1 97% 29.81 0.0
31 02:35 Calm 10.00 Fair CLR 68.9 68.2 98% 29.81 0.0
31 02:15 S 6 10.00 Fair CLR 70 68.9 96% 29.81 0.0
31 01:55 Calm 10.00 Fair CLR 70.5 68.9 95% 29.82 0.0
31 01:35 S 3 10.00 Fair CLR 70.9 69.6 96% 29.81 0.0
31 01:15 S 6 10.00 Fair CLR 70.7 69.3 95% 29.81 0.0
Date Time (cdt) Wind (mph) Vis. (mi.) Weather Sky Cond. Air Dwpt Max. Min. Relative Humidity Wind Chill (°F) Heat Index (°F) altimeter (in) sea level (mb) 1 hr 3 hr 6 hr
6 hour
Temperature (ºF) Pressure Precipitation (in)